Time;durP1;ratioP1;P1;durP2;ratioP2;P2;SDS_P1;SDS_P2;PMS_P1;PMS_P2;Temp;Humidity;BMP_temperature;BMP_pressure;BME280_temperature;BME280_humidity;BME280_pressure;Samples;Min_cycle;Max_cycle;Signal;HPM_P1;HPM_P2
2022/04/03 00:01:04;;;;;;;4.25;1.70;;;-1.60;99.90;;;;;;6214082;23;20063;-79
2022/04/03 00:03:30;;;;;;;3.85;1.83;;;-1.70;99.90;;;;;;6212487;23;20349;-79
2022/04/03 00:05:55;;;;;;;2.92;1.85;;;-1.70;99.90;;;;;;6212931;23;20012;-80
2022/04/03 00:08:21;;;;;;;4.32;1.50;;;-1.60;99.90;;;;;;6214422;23;20388;-80
2022/04/03 00:10:46;;;;;;;5.75;1.77;;;-1.60;99.90;;;;;;6213986;23;20480;-79
2022/04/03 00:13:12;;;;;;;4.75;2.20;;;-1.60;99.90;;;;;;6212465;23;20611;-79
2022/04/03 00:15:41;;;;;;;8.48;2.00;;;-1.60;99.90;;;;;;6212333;23;20487;-80
2022/04/03 00:18:10;;;;;;;3.65;1.83;;;-1.50;99.90;;;;;;6187546;23;20561;-79
2022/04/03 00:20:37;;;;;;;4.05;1.88;;;-1.50;99.90;;;;;;6212075;23;20009;-79
2022/04/03 00:23:02;;;;;;;2.83;1.65;;;-1.60;99.90;;;;;;6212246;23;20342;-80
2022/04/03 00:25:28;;;;;;;3.50;1.70;;;-1.60;99.90;;;;;;6211924;23;20015;-80
2022/04/03 00:27:53;;;;;;;4.03;2.05;;;-1.60;99.90;;;;;;6187776;23;20044;-80
2022/04/03 00:30:19;;;;;;;3.25;1.70;;;-1.60;99.90;;;;;;6213274;23;20013;-79
2022/04/03 00:32:44;;;;;;;2.65;1.88;;;-1.60;99.90;;;;;;6213840;23;20063;-79
2022/04/03 00:35:10;;;;;;;6.75;2.08;;;-1.50;99.90;;;;;;6212310;23;20091;-80
2022/04/03 00:37:36;;;;;;;3.63;1.80;;;-1.60;99.90;;;;;;6211938;23;20091;-79
2022/04/03 00:40:02;;;;;;;6.72;1.90;;;-1.60;99.90;;;;;;6213748;23;20019;-82
2022/04/03 00:42:28;;;;;;;3.42;1.73;;;-1.50;99.90;;;;;;6213648;22;20409;-80
2022/04/03 00:44:54;;;;;;;4.25;1.80;;;-1.50;99.90;;;;;;6212454;23;20070;-82
2022/04/03 00:47:20;;;;;;;5.57;1.77;;;-1.50;99.90;;;;;;6187219;23;20377;-79
2022/04/03 00:49:46;;;;;;;3.15;1.83;;;-1.40;99.90;;;;;;6212059;23;20016;-81
2022/04/03 00:52:12;;;;;;;3.92;2.03;;;-1.50;99.90;;;;;;6212420;23;20013;-81
2022/04/03 00:54:38;;;;;;;3.28;1.90;;;-1.50;99.90;;;;;;6212298;23;20088;-80
2022/04/03 00:57:06;;;;;;;3.95;1.70;;;-1.50;99.90;;;;;;6214094;23;20009;-80
2022/04/03 00:59:33;;;;;;;4.13;1.95;;;-1.50;99.90;;;;;;6215319;23;20013;-81
2022/04/03 01:01:59;;;;;;;5.85;2.20;;;-1.60;99.90;;;;;;6194727;23;20027;-80
2022/04/03 01:04:24;;;;;;;4.55;1.80;;;-1.60;99.90;;;;;;6214768;23;20013;-80
2022/04/03 01:06:50;;;;;;;3.13;2.08;;;-1.60;99.90;;;;;;6211896;23;20047;-79
2022/04/03 01:09:16;;;;;;;4.53;2.08;;;-1.60;99.90;;;;;;6213559;23;20017;-79
2022/04/03 01:11:43;;;;;;;4.95;1.65;;;-1.60;99.90;;;;;;6211737;23;20115;-79
2022/04/03 01:14:09;;;;;;;3.42;1.60;;;-1.70;99.90;;;;;;6212509;23;20016;-80
2022/04/03 01:16:35;;;;;;;5.68;1.55;;;-1.70;99.90;;;;;;6213472;23;20353;-82
2022/04/03 01:19:02;;;;;;;3.35;1.88;;;-1.70;99.90;;;;;;6211953;23;20102;-80
2022/04/03 01:21:27;;;;;;;7.20;2.08;;;-1.70;99.90;;;;;;6211482;23;20008;-80
2022/04/03 01:23:55;;;;;;;2.95;1.88;;;-1.70;99.90;;;;;;6213371;23;20517;-80
2022/04/03 01:26:24;;;;;;;3.20;1.65;;;-1.60;99.90;;;;;;6211865;23;20008;-82
2022/04/03 01:28:51;;;;;;;2.90;1.92;;;-1.50;99.90;;;;;;6213486;23;20446;-79
2022/04/03 01:31:17;;;;;;;2.85;1.80;;;-1.50;99.90;;;;;;6211569;23;20062;-79
2022/04/03 01:33:43;;;;;;;4.63;2.58;;;-1.50;99.90;;;;;;6211749;23;20017;-79
2022/04/03 01:36:09;;;;;;;8.52;2.22;;;-1.40;99.90;;;;;;6211647;23;20016;-79
2022/04/03 01:38:34;;;;;;;7.57;2.10;;;-1.30;99.90;;;;;;6186691;23;20009;-79
2022/04/03 01:41:00;;;;;;;3.60;2.03;;;-1.30;99.90;;;;;;6186582;23;20063;-79
2022/04/03 01:43:26;;;;;;;3.35;2.40;;;-1.20;99.90;;;;;;6213603;23;20005;-80
2022/04/03 01:45:51;;;;;;;5.18;2.53;;;-1.20;99.90;;;;;;6215423;23;20063;-81
2022/04/03 01:48:18;;;;;;;5.60;2.67;;;-1.10;99.90;;;;;;6215149;23;20112;-79
2022/04/03 01:50:43;;;;;;;4.53;2.10;;;-1.00;99.90;;;;;;6214810;23;20013;-80
2022/04/03 01:53:09;;;;;;;3.53;2.30;;;-0.90;99.90;;;;;;6215520;23;20093;-80
2022/04/03 01:55:34;;;;;;;4.95;2.30;;;-0.90;99.90;;;;;;6213716;23;20457;-80
2022/04/03 01:58:00;;;;;;;3.83;2.10;;;-0.90;99.90;;;;;;6213792;23;20460;-80
2022/04/03 02:00:26;;;;;;;4.40;2.38;;;-0.90;99.90;;;;;;6215113;23;20019;-82
2022/04/03 02:02:52;;;;;;;6.10;2.38;;;-0.80;99.90;;;;;;6213402;23;20013;-80
2022/04/03 02:05:18;;;;;;;6.85;2.70;;;-0.80;99.90;;;;;;6213324;23;20020;-81
2022/04/03 02:07:43;;;;;;;6.93;2.67;;;-0.80;99.90;;;;;;6213829;23;20016;-80
2022/04/03 02:10:12;;;;;;;3.28;2.22;;;-0.80;99.90;;;;;;6215093;23;20087;-79
2022/04/03 02:12:39;;;;;;;3.97;2.47;;;-0.70;99.90;;;;;;6215427;23;20004;-80
2022/04/03 02:15:05;;;;;;;4.28;2.40;;;-0.70;99.90;;;;;;6215357;23;20433;-80
2022/04/03 02:17:31;;;;;;;5.45;2.50;;;-0.70;99.90;;;;;;6215040;23;20092;-80
2022/04/03 02:19:57;;;;;;;5.55;2.78;;;-0.70;99.90;;;;;;6214866;23;20047;-80
2022/04/03 02:22:22;;;;;;;4.88;2.20;;;-0.70;99.90;;;;;;6213911;23;20005;-83
2022/04/03 02:24:48;;;;;;;4.20;2.22;;;-0.70;99.90;;;;;;6215292;23;20009;-79
2022/04/03 02:27:13;;;;;;;3.17;2.17;;;-0.70;99.90;;;;;;6213534;23;20035;-80
2022/04/03 02:29:39;;;;;;;2.17;1.98;;;-0.70;99.90;;;;;;6215036;23;20016;-80
2022/04/03 02:32:05;;;;;;;4.85;2.80;;;-0.70;99.90;;;;;;6213843;23;20078;-82
2022/04/03 02:34:30;;;;;;;3.70;2.30;;;-0.70;99.90;;;;;;6215177;23;20028;-80
2022/04/03 02:36:56;;;;;;;4.57;2.40;;;-0.70;99.90;;;;;;6215237;23;20020;-79
2022/04/03 02:39:21;;;;;;;4.85;2.83;;;-0.70;99.90;;;;;;6213680;23;20368;-80
2022/04/03 02:41:47;;;;;;;4.72;2.88;;;-0.70;99.90;;;;;;6213303;23;20453;-80
2022/04/03 02:44:13;;;;;;;5.20;2.40;;;-0.60;99.90;;;;;;6188560;23;20348;-80
2022/04/03 02:46:39;;;;;;;3.15;2.38;;;-0.70;99.90;;;;;;6213089;23;20005;-80
2022/04/03 02:49:07;;;;;;;5.25;3.03;;;-0.70;99.90;;;;;;6188796;23;20027;-79
2022/04/03 02:51:37;;;;;;;5.85;2.72;;;-0.70;99.90;;;;;;6213390;23;20079;-80
2022/04/03 02:54:03;;;;;;;5.53;2.50;;;-0.70;99.90;;;;;;6187894;23;20012;-80
2022/04/03 02:56:28;;;;;;;4.65;2.95;;;-0.70;99.90;;;;;;6214891;23;20385;-80
2022/04/03 02:58:55;;;;;;;2.90;1.88;;;-0.70;99.90;;;;;;6214941;23;20074;-79
2022/04/03 03:01:21;;;;;;;4.80;3.42;;;-0.70;99.90;;;;;;6214766;23;20071;-79
2022/04/03 03:03:47;;;;;;;4.97;2.92;;;-0.70;99.90;;;;;;6187975;23;20380;-79
2022/04/03 03:06:14;;;;;;;3.25;2.00;;;-0.70;99.90;;;;;;6213396;23;20005;-80
2022/04/03 03:08:41;;;;;;;5.15;2.50;;;-0.70;99.90;;;;;;6213414;23;20013;-80
2022/04/03 03:11:06;;;;;;;7.63;3.15;;;-0.70;99.90;;;;;;6212728;23;20150;-80
2022/04/03 03:13:32;;;;;;;7.78;2.55;;;-0.70;99.90;;;;;;6213614;23;20074;-80
2022/04/03 03:15:57;;;;;;;4.68;2.65;;;-0.70;99.90;;;;;;6213503;23;20012;-79
2022/04/03 03:18:23;;;;;;;6.55;3.17;;;-0.70;99.90;;;;;;6188613;23;20096;-80
2022/04/03 03:20:48;;;;;;;4.38;2.40;;;-0.80;99.90;;;;;;6214693;23;20039;-80
2022/04/03 03:23:14;;;;;;;3.50;2.42;;;-0.80;99.90;;;;;;6215431;23;20079;-81
2022/04/03 03:25:39;;;;;;;3.88;2.47;;;-0.80;99.90;;;;;;6215009;23;20040;-79
2022/04/03 03:28:05;;;;;;;7.07;2.70;;;-0.90;99.90;;;;;;6214715;23;20342;-79
2022/04/03 03:30:31;;;;;;;5.53;3.13;;;-0.90;99.90;;;;;;6214958;23;20346;-80
2022/04/03 03:32:56;;;;;;;4.38;2.33;;;-0.90;99.90;;;;;;6213470;23;20095;-82
2022/04/03 03:35:23;;;;;;;4.70;2.42;;;-0.90;99.90;;;;;;6218857;23;20084;-79
2022/04/03 03:37:48;;;;;;;4.47;2.65;;;-0.90;99.90;;;;;;6216553;23;20032;-81
2022/04/03 03:40:14;;;;;;;6.97;2.60;;;-0.90;99.90;;;;;;6214564;23;20040;-79
2022/04/03 03:42:43;;;;;;;3.80;2.60;;;-0.90;99.90;;;;;;6214672;23;20012;-80
2022/04/03 03:45:14;;;;;;;4.25;2.53;;;-0.90;99.90;;;;;;6213187;23;20024;-83
2022/04/03 03:47:42;;;;;;;3.45;2.40;;;-0.90;99.90;;;;;;6187594;23;20012;-80
2022/04/03 03:50:08;;;;;;;9.35;2.75;;;-0.80;99.90;;;;;;6212581;23;20013;-80
2022/04/03 03:52:33;;;;;;;6.38;2.15;;;-0.80;99.90;;;;;;6212824;23;20009;-80
2022/04/03 03:54:59;;;;;;;9.88;2.88;;;-0.70;99.90;;;;;;6187870;23;20013;-82
2022/04/03 03:57:24;;;;;;;5.40;2.65;;;-0.60;99.90;;;;;;6213384;23;20005;-80
2022/04/03 03:59:51;;;;;;;5.45;2.15;;;-0.60;99.90;;;;;;6212813;23;20078;-79
2022/04/03 04:02:17;;;;;;;3.95;2.55;;;-0.50;99.90;;;;;;6212826;23;20024;-80
2022/04/03 04:04:42;;;;;;;3.40;2.28;;;-0.50;99.90;;;;;;6187623;23;20013;-79
2022/04/03 04:07:08;;;;;;;6.63;2.47;;;-0.40;99.90;;;;;;6187702;23;20008;-80
2022/04/03 04:09:34;;;;;;;4.95;2.53;;;-0.40;99.90;;;;;;6212717;23;20013;-79
2022/04/03 04:11:59;;;;;;;5.47;2.33;;;-0.30;99.90;;;;;;6214585;23;20099;-81
2022/04/03 04:14:25;;;;;;;7.10;2.63;;;-0.30;99.90;;;;;;6214819;23;20023;-79
2022/04/03 04:16:50;;;;;;;3.72;2.75;;;-0.30;99.90;;;;;;6212911;23;20016;-80
2022/04/03 04:19:16;;;;;;;2.95;2.03;;;-0.20;99.90;;;;;;6213255;23;20020;-80
2022/04/03 04:21:42;;;;;;;3.95;2.42;;;-0.20;99.90;;;;;;6213409;23;20019;-80
2022/04/03 04:24:08;;;;;;;5.28;2.40;;;-0.10;99.90;;;;;;6213075;23;20438;-80
2022/04/03 04:26:34;;;;;;;5.15;2.50;;;-0.10;99.90;;;;;;6214447;23;20013;-80
2022/04/03 04:28:59;;;;;;;5.65;2.45;;;0.00;99.90;;;;;;6214581;23;20016;-80
2022/04/03 04:31:25;;;;;;;4.07;2.00;;;0.00;99.90;;;;;;6214672;23;20418;-80
2022/04/03 04:33:50;;;;;;;7.43;2.50;;;0.10;99.90;;;;;;6214859;23;20012;-81
2022/04/03 04:36:16;;;;;;;5.43;2.40;;;0.10;99.90;;;;;;6188343;23;20080;-80
2022/04/03 04:38:41;;;;;;;5.85;2.72;;;0.10;99.90;;;;;;6187811;23;20063;-80
2022/04/03 04:41:07;;;;;;;5.18;2.40;;;0.10;99.90;;;;;;6214507;23;20004;-80
2022/04/03 04:43:33;;;;;;;6.40;2.58;;;0.10;99.90;;;;;;6212889;23;20457;-80
2022/04/03 04:45:58;;;;;;;3.65;2.13;;;0.20;99.90;;;;;;6188202;23;20017;-80
2022/04/03 04:48:24;;;;;;;5.97;3.10;;;0.30;99.90;;;;;;6212920;23;20012;-80
2022/04/03 04:50:50;;;;;;;7.80;2.70;;;0.30;99.90;;;;;;6212690;23;20021;-80
2022/04/03 04:53:15;;;;;;;6.10;2.35;;;0.30;99.90;;;;;;6188206;23;20017;-80
2022/04/03 04:55:42;;;;;;;4.07;2.15;;;0.40;99.90;;;;;;6214901;23;20469;-82
2022/04/03 04:58:07;;;;;;;3.13;2.28;;;0.40;99.90;;;;;;6212939;23;20492;-80
2022/04/03 05:00:33;;;;;;;3.15;2.22;;;0.40;99.90;;;;;;6213319;23;20013;-82
2022/04/03 05:02:59;;;;;;;8.43;2.20;;;0.40;99.90;;;;;;6187688;23;20084;-80
2022/04/03 05:05:27;;;;;;;5.60;2.03;;;0.40;99.90;;;;;;6213112;23;20495;-80
2022/04/03 05:07:58;;;;;;;2.35;2.00;;;0.30;99.90;;;;;;6214845;23;20013;-80
2022/04/03 05:10:25;;;;;;;2.22;1.52;;;0.20;99.90;;;;;;6214172;23;20036;-80
2022/04/03 05:12:52;;;;;;;6.90;2.10;;;0.20;99.90;;;;;;6214441;23;20016;-80
2022/04/03 05:15:18;;;;;;;3.38;2.20;;;0.10;99.90;;;;;;6214553;23;20013;-82
2022/04/03 05:17:45;;;;;;;3.55;2.28;;;0.10;99.90;;;;;;6216067;23;20012;-80
2022/04/03 05:20:12;;;;;;;4.28;2.30;;;0.00;99.90;;;;;;6215534;23;20500;-80
2022/04/03 05:22:38;;;;;;;5.78;2.00;;;0.00;99.90;;;;;;6215673;23;20013;-81
2022/04/03 05:25:04;;;;;;;3.20;1.63;;;0.00;99.90;;;;;;6190219;23;20354;-81
2022/04/03 05:27:31;;;;;;;3.85;2.10;;;0.00;99.90;;;;;;6215695;23;20063;-80
2022/04/03 05:29:57;;;;;;;4.68;2.05;;;0.00;99.90;;;;;;6214735;23;20027;-80
2022/04/03 05:32:28;;;;;;;3.72;1.88;;;0.00;99.90;;;;;;6190634;23;20012;-80
2022/04/03 05:34:54;;;;;;;4.30;2.20;;;0.00;99.90;;;;;;6217185;23;20008;-80
2022/04/03 05:37:20;;;;;;;5.88;2.08;;;0.00;99.90;;;;;;6190562;23;20012;-81
2022/04/03 05:39:46;;;;;;;6.35;1.95;;;0.10;99.90;;;;;;6216924;23;20133;-80
2022/04/03 05:42:12;;;;;;;3.00;2.00;;;0.10;99.90;;;;;;6216723;23;20051;-79
2022/04/03 05:44:38;;;;;;;3.65;1.63;;;0.10;99.90;;;;;;6215469;23;20009;-80
2022/04/03 05:47:04;;;;;;;2.10;1.40;;;0.10;99.90;;;;;;6215124;23;20556;-80
2022/04/03 05:49:30;;;;;;;4.07;1.73;;;0.10;99.90;;;;;;6214948;23;20017;-79
2022/04/03 05:51:56;;;;;;;3.35;2.35;;;0.10;99.90;;;;;;6214941;23;20476;-80
2022/04/03 05:54:21;;;;;;;5.65;3.03;;;0.10;99.90;;;;;;6189901;23;20043;-80
2022/04/03 05:56:47;;;;;;;5.13;2.10;;;0.10;99.90;;;;;;6189307;23;20012;-80
2022/04/03 05:59:13;;;;;;;4.50;2.30;;;0.00;99.90;;;;;;6214579;23;20060;-81
2022/04/03 06:01:38;;;;;;;3.63;2.25;;;0.10;99.90;;;;;;6189223;23;20009;-80
2022/04/03 06:04:04;;;;;;;3.58;1.92;;;0.00;99.90;;;;;;6215790;23;20009;-80
2022/04/03 06:06:30;;;;;;;9.32;2.35;;;0.10;99.90;;;;;;6216061;23;20079;-80
2022/04/03 06:08:55;;;;;;;4.93;2.25;;;0.10;99.90;;;;;;6214557;23;20091;-80
2022/04/03 06:11:21;;;;;;;3.40;1.83;;;0.20;99.90;;;;;;6189395;23;20012;-81
2022/04/03 06:13:46;;;;;;;4.03;2.22;;;0.20;99.90;;;;;;6218379;23;20016;-79
2022/04/03 06:16:12;;;;;;;3.35;2.42;;;0.20;99.90;;;;;;6219160;23;20070;-80
2022/04/03 06:18:37;;;;;;;2.28;1.88;;;0.20;99.90;;;;;;6217196;23;20008;-80
2022/04/03 06:21:03;;;;;;;4.32;2.22;;;0.30;99.90;;;;;;6215303;23;20008;-82
2022/04/03 06:23:29;;;;;;;4.90;1.52;;;0.40;99.90;;;;;;6214464;23;20016;-80
2022/04/03 06:25:57;;;;;;;3.40;1.80;;;0.40;99.90;;;;;;6213883;23;20012;-80
2022/04/03 06:28:23;;;;;;;8.63;2.92;;;0.50;99.90;;;;;;6214067;23;20008;-80
2022/04/03 06:30:49;;;;;;;3.20;2.42;;;0.60;99.90;;;;;;6189146;23;20346;-80
2022/04/03 06:33:16;;;;;;;4.43;1.98;;;0.70;99.90;;;;;;6214520;23;20016;-80
2022/04/03 06:35:43;;;;;;;8.35;2.50;;;0.80;99.90;;;;;;6216118;23;20044;-80
2022/04/03 06:38:09;;;;;;;3.53;1.73;;;0.90;99.90;;;;;;6189239;23;20453;-80
2022/04/03 06:40:36;;;;;;;5.38;1.90;;;1.00;99.90;;;;;;6213880;23;20016;-80
2022/04/03 06:43:02;;;;;;;3.28;1.40;;;1.00;99.90;;;;;;6213833;23;20013;-80
2022/04/03 06:45:28;;;;;;;1.90;1.50;;;1.20;99.90;;;;;;6189077;23;20012;-80
2022/04/03 06:47:57;;;;;;;1.92;1.73;;;1.30;99.90;;;;;;6214979;23;20084;-80
2022/04/03 06:50:23;;;;;;;3.58;1.33;;;1.40;99.90;;;;;;6214631;23;20005;-81
2022/04/03 06:52:48;;;;;;;2.58;1.67;;;1.60;99.90;;;;;;6189367;23;20475;-81
2022/04/03 06:55:14;;;;;;;5.35;1.60;;;1.90;99.90;;;;;;6190097;23;20012;-80
2022/04/03 06:57:40;;;;;;;3.05;1.52;;;1.90;99.90;;;;;;6190088;23;20511;-80
2022/04/03 07:00:07;;;;;;;6.68;1.70;;;2.10;99.90;;;;;;6214270;23;20009;-80
2022/04/03 07:02:35;;;;;;;3.42;1.30;;;2.20;99.90;;;;;;6190204;23;20087;-80
2022/04/03 07:05:02;;;;;;;7.82;4.22;;;2.30;99.90;;;;;;6216671;23;20016;-81
2022/04/03 07:07:29;;;;;;;5.18;2.63;;;2.50;99.90;;;;;;6213866;23;20717;-82
2022/04/03 07:09:55;;;;;;;8.45;3.83;;;2.70;99.90;;;;;;6214147;23;20017;-81
2022/04/03 07:12:21;;;;;;;7.32;2.45;;;3.00;99.90;;;;;;6215025;23;20016;-80
2022/04/03 07:14:47;;;;;;;3.38;1.75;;;3.30;99.90;;;;;;6187818;23;20484;-81
2022/04/03 07:17:13;;;;;;;4.80;1.83;;;3.70;99.90;;;;;;6213967;23;20013;-81
2022/04/03 07:19:39;;;;;;;1.45;1.30;;;4.50;99.90;;;;;;6216807;23;20034;-82
2022/04/03 07:22:05;;;;;;;2.47;1.17;;;5.40;99.90;;;;;;6214943;23;20095;-81
2022/04/03 07:24:31;;;;;;;2.55;1.15;;;6.20;99.90;;;;;;6215893;23;20078;-81
2022/04/03 07:26:56;;;;;;;2.83;1.08;;;7.00;99.90;;;;;;6191297;23;20489;-80
2022/04/03 07:29:23;;;;;;;2.78;1.33;;;7.80;99.90;;;;;;6215763;23;20067;-82
2022/04/03 07:31:49;;;;;;;4.38;1.38;;;8.30;99.90;;;;;;6215204;23;20043;-81
2022/04/03 07:34:15;;;;;;;2.00;1.00;;;8.70;99.90;;;;;;6214949;23;20091;-81
2022/04/03 07:36:41;;;;;;;3.28;0.90;;;9.00;99.90;;;;;;6214167;23;20051;-81
2022/04/03 07:39:09;;;;;;;2.25;0.90;;;9.50;99.90;;;;;;6215998;23;20020;-82
2022/04/03 07:41:34;;;;;;;3.90;0.98;;;9.80;99.90;;;;;;6214873;23;20008;-82
2022/04/03 07:44:00;;;;;;;2.47;1.50;;;10.20;99.90;;;;;;6215173;23;20059;-82
2022/04/03 07:46:25;;;;;;;3.00;1.35;;;10.30;99.90;;;;;;6217122;23;20012;-82
2022/04/03 07:48:51;;;;;;;2.65;0.80;;;10.40;99.90;;;;;;6217308;23;20012;-81
2022/04/03 07:51:16;;;;;;;2.63;1.13;;;10.70;99.90;;;;;;6215821;23;20044;-81
2022/04/03 07:53:42;;;;;;;5.40;0.93;;;10.90;99.90;;;;;;6216613;23;20044;-81
2022/04/03 07:56:07;;;;;;;0.93;0.77;;;11.00;99.90;;;;;;6190292;23;20454;-81
2022/04/03 07:58:34;;;;;;;2.28;1.00;;;11.30;99.90;;;;;;6215946;23;20044;-81
2022/04/03 08:01:01;;;;;;;4.22;0.90;;;11.40;99.90;;;;;;6214275;23;20095;-82
2022/04/03 08:03:27;;;;;;;6.95;1.38;;;11.50;99.90;;;;;;6214726;23;20446;-82
2022/04/03 08:05:53;;;;;;;3.80;1.02;;;11.50;99.90;;;;;;6214962;23;20019;-82
2022/04/03 08:08:19;;;;;;;3.88;0.90;;;11.40;99.90;;;;;;6214807;23;20012;-81
2022/04/03 08:10:44;;;;;;;3.40;0.60;;;11.50;99.90;;;;;;6190133;23;20442;-81
2022/04/03 08:13:10;;;;;;;3.85;0.80;;;11.60;99.90;;;;;;6216125;23;20014;-82
2022/04/03 08:15:36;;;;;;;2.25;0.70;;;11.80;99.90;;;;;;6215701;23;20374;-81
2022/04/03 08:18:01;;;;;;;1.02;0.60;;;11.90;99.90;;;;;;6215102;23;20048;-81
2022/04/03 08:20:27;;;;;;;2.10;0.88;;;12.00;99.90;;;;;;6214583;23;20021;-81
2022/04/03 08:22:53;;;;;;;6.68;0.90;;;12.00;99.90;;;;;;6215214;23;20084;-81
2022/04/03 08:25:18;;;;;;;3.40;0.55;;;12.00;99.90;;;;;;6191065;23;20009;-81
2022/04/03 08:27:47;;;;;;;2.30;0.77;;;12.20;99.90;;;;;;6216460;23;20009;-81
2022/04/03 08:30:18;;;;;;;4.15;1.00;;;12.40;99.90;;;;;;6189558;23;20017;-82
2022/04/03 08:32:43;;;;;;;6.07;0.70;;;12.70;99.90;;;;;;6215307;23;20022;-81
2022/04/03 08:35:11;;;;;;;3.42;0.85;;;12.60;99.90;;;;;;6191179;23;20052;-81
2022/04/03 08:37:37;;;;;;;1.73;0.70;;;12.60;99.90;;;;;;6213816;23;20043;-81
2022/04/03 08:40:05;;;;;;;3.03;0.80;;;12.20;99.90;;;;;;6188006;23;20024;-81
2022/04/03 08:42:30;;;;;;;1.50;0.80;;;11.80;99.90;;;;;;6212905;23;20468;-81
2022/04/03 08:44:56;;;;;;;3.28;0.80;;;11.30;99.90;;;;;;6213222;23;20013;-81
2022/04/03 08:47:24;;;;;;;2.20;0.60;;;11.00;99.90;;;;;;6213248;23;20095;-81
2022/04/03 08:49:50;;;;;;;4.70;0.90;;;11.00;99.90;;;;;;6214396;23;20017;-80
2022/04/03 08:52:16;;;;;;;4.63;0.77;;;10.70;99.90;;;;;;6190672;23;20083;-80
2022/04/03 08:54:42;;;;;;;2.38;0.70;;;10.30;99.90;;;;;;6215524;23;20055;-81
2022/04/03 08:57:07;;;;;;;1.77;0.70;;;10.00;99.90;;;;;;6215768;23;20069;-81
2022/04/03 08:59:36;;;;;;;2.05;0.90;;;9.70;99.90;;;;;;6217573;23;20048;-80
2022/04/03 09:02:01;;;;;;;3.33;0.70;;;9.50;99.90;;;;;;6217714;23;20024;-80
2022/04/03 09:04:30;;;;;;;4.22;1.00;;;9.20;99.90;;;;;;6217242;23;20433;-80
2022/04/03 09:06:57;;;;;;;3.35;0.70;;;9.50;99.90;;;;;;6215614;23;20019;-81
2022/04/03 09:09:25;;;;;;;2.90;0.60;;;10.10;99.90;;;;;;6220045;23;20023;-81
2022/04/03 09:12:12;;;;;;;2.78;0.70;;;10.00;99.90;;;;;;6197358;23;20020;-80
2022/04/03 09:14:47;;;;;;;1.65;0.65;;;9.50;99.90;;;;;;6218838;23;20064;-80
2022/04/03 09:17:30;;;;;;;6.18;1.67;;;9.10;99.90;;;;;;6213789;23;20020;-81
2022/04/03 09:19:56;;;;;;;1.60;0.50;;;9.00;99.90;;;;;;6213779;23;20020;-80
2022/04/03 09:22:28;;;;;;;3.42;0.75;;;9.50;99.90;;;;;;6214179;23;20008;-81
2022/04/03 09:24:55;;;;;;;2.03;0.90;;;10.10;99.90;;;;;;6215694;23;20133;-81
2022/04/03 09:27:22;;;;;;;1.65;0.70;;;10.40;99.90;;;;;;6215379;23;20092;-81
2022/04/03 09:30:04;;;;;;;2.38;0.55;;;10.10;99.90;;;;;;6190270;23;20015;-80
2022/04/03 09:32:30;;;;;;;;;;;9.70;99.90;;;;;;6190629;23;20027;-81
2022/04/03 09:34:57;;;;;;;1.00;0.50;;;9.00;99.90;;;;;;6214943;23;19983;-80
2022/04/03 09:37:24;;;;;;;1.10;0.95;;;8.60;99.90;;;;;;6189999;23;20315;-82
2022/04/03 09:39:50;;;;;;;1.83;0.70;;;8.40;99.90;;;;;;6190614;23;20023;-80
2022/04/03 09:42:16;;;;;;;2.35;0.68;;;8.30;99.90;;;;;;6216860;23;20009;-81
2022/04/03 09:44:44;;;;;;;4.25;0.95;;;8.10;99.90;;;;;;6191242;23;20087;-80
2022/04/03 09:47:33;;;;;;;2.08;0.65;;;8.00;99.90;;;;;;6191457;23;20055;-80
2022/04/03 09:50:06;;;;;;;6.72;2.40;;;8.10;99.90;;;;;;6190109;23;20016;-83
2022/04/03 09:52:44;;;;;;;0.95;0.57;;;8.10;99.90;;;;;;6191220;23;20008;-81
2022/04/03 09:55:13;;;;;;;4.13;0.65;;;8.10;99.90;;;;;;6216794;23;20013;-81
2022/04/03 09:57:38;;;;;;;0.93;0.60;;;8.40;99.90;;;;;;6190812;23;20016;-80
2022/04/03 10:00:05;;;;;;;2.65;0.75;;;9.20;99.90;;;;;;6216426;23;20017;-81
2022/04/03 10:02:32;;;;;;;5.60;0.93;;;10.40;99.90;;;;;;6191263;23;20009;-85
2022/04/03 10:04:58;;;;;;;4.57;0.93;;;11.10;99.90;;;;;;6221011;23;20024;-83
2022/04/03 10:07:24;;;;;;;1.95;0.80;;;11.10;99.90;;;;;;6194746;23;20055;-81
2022/04/03 10:09:51;;;;;;;2.17;1.13;;;10.80;99.90;;;;;;6217115;23;20087;-82
2022/04/03 10:12:19;;;;;;;0.68;0.45;;;10.90;99.90;;;;;;6193079;23;20012;-80
2022/04/03 10:14:46;;;;;;;1.20;0.52;;;11.10;99.90;;;;;;6216956;23;20091;-81
2022/04/03 10:17:16;;;;;;;1.05;0.60;;;10.80;99.90;;;;;;6219454;23;20092;-81
2022/04/03 10:19:43;;;;;;;1.50;0.50;;;10.50;99.90;;;;;;6219523;23;20013;-80
2022/04/03 10:22:17;;;;;;;2.92;0.52;;;10.60;99.90;;;;;;6194350;23;20384;-81
2022/04/03 10:24:46;;;;;;;1.88;0.52;;;11.00;99.90;;;;;;6218749;23;20009;-80
2022/04/03 10:27:23;;;;;;;2.15;0.70;;;11.30;99.90;;;;;;6215002;23;20020;-80
2022/04/03 10:29:50;;;;;;;1.90;0.43;;;11.50;97.20;;;;;;6215347;23;20027;-81
2022/04/03 10:32:34;;;;;;;1.27;0.45;;;11.30;99.20;;;;;;6215634;23;20012;-81
2022/04/03 10:35:07;;;;;;;1.85;0.40;;;11.20;96.80;;;;;;6218035;23;20013;-81
2022/04/03 10:37:36;;;;;;;0.70;0.50;;;11.10;98.50;;;;;;6192320;23;20005;-81
2022/04/03 10:40:09;;;;;;;0.55;0.40;;;10.90;95.80;;;;;;6191671;23;20095;-81
2022/04/03 10:43:01;;;;;;;1.90;0.35;;;10.60;98.50;;;;;;6192076;23;20008;-80
2022/04/03 10:45:33;;;;;;;1.55;0.30;;;10.20;95.10;;;;;;6191135;23;20020;-81
2022/04/03 10:48:17;;;;;;;;;;;9.80;98.00;;;;;;6217295;23;20109;-81
2022/04/03 10:51:06;;;;;;;0.95;0.50;;;9.50;95.40;;;;;;6191146;23;19915;-80
2022/04/03 10:53:38;;;;;;;2.05;0.40;;;9.20;96.30;;;;;;6191305;23;20019;-80
2022/04/03 10:56:09;;;;;;;0.40;0.30;;;9.00;99.40;;;;;;6216739;23;20088;-80
2022/04/03 10:58:46;;;;;;;0.25;0.25;;;8.90;99.10;;;;;;6215939;23;20111;-81
2022/04/03 11:01:26;;;;;;;1.17;0.47;;;8.70;98.10;;;;;;6218663;23;20334;-80
2022/04/03 11:03:57;;;;;;;0.63;0.38;;;8.60;95.80;;;;;;6190512;23;20015;-81
2022/04/03 11:06:31;;;;;;;0.43;0.38;;;8.50;98.70;;;;;;6190179;23;20013;-81
2022/04/03 11:09:05;;;;;;;2.20;0.50;;;8.40;98.10;;;;;;6216059;23;20020;-81
2022/04/03 11:11:38;;;;;;;1.50;0.88;;;8.30;98.90;;;;;;6217865;23;20013;-80
2022/04/03 11:14:09;;;;;;;2.08;0.55;;;8.20;97.80;;;;;;6190495;23;20561;-80
2022/04/03 11:16:55;;;;;;;1.98;0.70;;;8.10;99.60;;;;;;6190081;23;20013;-80
2022/04/03 11:19:44;;;;;;;2.47;0.52;;;8.10;99.70;;;;;;6217139;23;20009;-80
2022/04/03 11:22:13;;;;;;;0.90;0.75;;;8.20;99.90;;;;;;6189586;23;20005;-80
2022/04/03 11:24:39;;;;;;;1.35;0.50;;;8.20;99.90;;;;;;6189419;23;20088;-80
2022/04/03 11:27:07;;;;;;;9.07;3.55;;;8.30;99.90;;;;;;6214231;23;20464;-80
2022/04/03 11:29:33;;;;;;;3.72;1.60;;;8.40;99.90;;;;;;6213980;23;20020;-80
2022/04/03 11:32:02;;;;;;;1.65;0.63;;;8.60;99.90;;;;;;6215948;23;20047;-81
2022/04/03 11:34:29;;;;;;;3.65;1.30;;;8.70;99.90;;;;;;6214606;23;20031;-80
2022/04/03 11:36:59;;;;;;;0.60;0.50;;;9.00;99.90;;;;;;6214068;23;20008;-80
2022/04/03 11:39:38;;;;;;;2.50;0.60;;;9.10;99.90;;;;;;6189459;23;20040;-81
2022/04/03 11:42:08;;;;;;;1.63;0.50;;;9.10;99.50;;;;;;6216531;23;20061;-80
2022/04/03 11:44:37;;;;;;;3.25;0.70;;;9.10;99.90;;;;;;6214045;23;20035;-82
2022/04/03 11:47:05;;;;;;;0.85;0.55;;;8.90;99.90;;;;;;6215450;23;20012;-81
2022/04/03 11:49:32;;;;;;;0.73;0.57;;;8.70;99.90;;;;;;6217815;23;20013;-82
2022/04/03 11:52:05;;;;;;;2.70;0.60;;;8.50;99.90;;;;;;6217544;23;20414;-81
2022/04/03 11:54:32;;;;;;;0.52;0.50;;;8.30;99.90;;;;;;6216476;23;20021;-81
2022/04/03 11:57:00;;;;;;;2.83;0.75;;;8.10;99.90;;;;;;6214526;23;20357;-81
2022/04/03 11:59:26;;;;;;;1.17;0.45;;;8.10;99.90;;;;;;6190449;23;20051;-80
2022/04/03 12:01:52;;;;;;;1.30;0.73;;;8.00;99.90;;;;;;6215574;23;20371;-80
2022/04/03 12:04:18;;;;;;;2.53;0.90;;;8.10;99.90;;;;;;6216002;23;20050;-80
2022/04/03 12:06:55;;;;;;;2.17;0.60;;;8.00;99.90;;;;;;6214013;23;20465;-80
2022/04/03 12:09:21;;;;;;;2.63;0.52;;;8.10;99.90;;;;;;6216296;23;20051;-80
2022/04/03 12:11:51;;;;;;;0.73;0.43;;;8.30;99.90;;;;;;6191142;23;20022;-81
2022/04/03 12:14:26;;;;;;;0.70;0.50;;;8.30;99.90;;;;;;6216413;23;20023;-80
2022/04/03 12:17:02;;;;;;;1.55;0.50;;;8.40;99.90;;;;;;6217014;23;20012;-80
2022/04/03 12:19:38;;;;;;;3.80;0.50;;;8.30;99.90;;;;;;6189819;23;20020;-80
2022/04/03 12:22:08;;;;;;;4.32;1.00;;;8.30;99.90;;;;;;6214798;23;20070;-80
2022/04/03 12:24:34;;;;;;;4.90;0.93;;;8.30;99.90;;;;;;6214927;23;20015;-81
2022/04/03 12:27:02;;;;;;;0.80;0.60;;;8.20;99.90;;;;;;6191998;23;20008;-80
2022/04/03 12:29:30;;;;;;;1.75;0.40;;;8.10;99.90;;;;;;6229986;23;20043;-81
2022/04/03 12:32:00;;;;;;;0.63;0.50;;;8.00;99.90;;;;;;6225589;23;20027;-80
2022/04/03 12:34:28;;;;;;;1.15;0.50;;;7.90;99.90;;;;;;6212447;23;20019;-80
2022/04/03 12:36:55;;;;;;;1.05;0.50;;;7.90;99.90;;;;;;6213960;23;20540;-80
2022/04/03 12:39:40;;;;;;;1.75;0.70;;;7.80;99.90;;;;;;6214226;23;20016;-80
2022/04/03 12:42:15;;;;;;;0.90;0.65;;;7.80;99.90;;;;;;6212816;23;20008;-82
2022/04/03 12:44:57;;;;;;;1.83;0.60;;;7.80;99.90;;;;;;6212208;23;20012;-80
2022/04/03 12:47:38;;;;;;;1.98;0.88;;;7.90;99.90;;;;;;6187266;23;20047;-80
2022/04/03 12:50:06;;;;;;;1.30;0.60;;;8.00;99.90;;;;;;6212723;23;20012;-80
2022/04/03 12:52:48;;;;;;;1.15;0.70;;;8.10;99.90;;;;;;6212466;23;20782;-80
2022/04/03 12:55:26;;;;;;;2.75;0.60;;;8.00;99.90;;;;;;6214384;23;20017;-80